Time;durP1;ratioP1;P1;durP2;ratioP2;P2;SDS_P1;SDS_P2;PMS_P1;PMS_P2;Temp;Humidity;BMP_temperature;BMP_pressure;BME280_temperature;BME280_humidity;BME280_pressure;Samples;Min_cycle;Max_cycle;Signal;HPM_P1;HPM_P2
2022/01/30 00:01:42;;;;;;;5.85;3.00;;;10.50;99.90;;;;;;5116016;28;20477;-75
2022/01/30 00:04:07;;;;;;;4.28;2.60;;;10.40;99.90;;;;;;5116221;28;20496;-74
2022/01/30 00:06:33;;;;;;;6.13;3.00;;;10.40;99.90;;;;;;5116101;28;20020;-74
2022/01/30 00:08:59;;;;;;;3.38;2.42;;;10.30;99.90;;;;;;5116301;28;20020;-75
2022/01/30 00:11:30;;;;;;;5.93;2.88;;;10.40;99.90;;;;;;5114920;28;20061;-75
2022/01/30 00:13:56;;;;;;;6.90;3.20;;;10.40;99.90;;;;;;5114494;28;20031;-74
2022/01/30 00:16:24;;;;;;;6.68;2.60;;;10.40;99.90;;;;;;5115863;28;20038;-75
2022/01/30 00:24:01;;;;;;;4.70;2.50;;;10.40;99.90;;;;;;5115598;28;20401;-75
2022/01/30 00:26:30;;;;;;;3.03;2.10;;;10.40;99.90;;;;;;5115799;28;20023;-76
2022/01/30 00:28:56;;;;;;;7.00;2.90;;;10.30;99.90;;;;;;5114461;28;20481;-74
2022/01/30 00:31:24;;;;;;;6.53;2.80;;;10.40;99.90;;;;;;5115938;28;20521;-75
2022/01/30 00:33:50;;;;;;;4.65;2.72;;;10.40;99.90;;;;;;5115849;28;20016;-75
2022/01/30 00:36:15;;;;;;;5.60;2.55;;;10.40;99.90;;;;;;5115471;28;20554;-75
2022/01/30 00:38:41;;;;;;;5.03;2.80;;;10.30;99.90;;;;;;5115748;28;20397;-74
2022/01/30 00:41:07;;;;;;;6.55;2.78;;;10.30;99.90;;;;;;5115722;28;20046;-76
2022/01/30 00:43:33;;;;;;;6.15;2.85;;;10.30;99.90;;;;;;5115654;28;20469;-74
2022/01/30 00:45:59;;;;;;;6.10;2.90;;;10.30;99.90;;;;;;5114118;28;20023;-76
2022/01/30 00:48:25;;;;;;;4.80;2.58;;;10.40;99.90;;;;;;5115316;28;20031;-76
2022/01/30 00:50:50;;;;;;;5.30;2.72;;;10.30;99.90;;;;;;5115265;28;20473;-75
2022/01/30 00:53:16;;;;;;;5.70;2.15;;;10.30;99.90;;;;;;5115162;28;20383;-75
2022/01/30 00:55:42;;;;;;;5.10;2.75;;;10.40;99.90;;;;;;5115296;28;20027;-75
2022/01/30 00:58:08;;;;;;;5.13;3.05;;;10.30;99.90;;;;;;5115397;28;20020;-74
2022/01/30 01:00:35;;;;;;;10.07;3.45;;;10.30;99.90;;;;;;5114888;28;20030;-74
2022/01/30 01:03:01;;;;;;;7.63;3.83;;;10.30;99.90;;;;;;5114803;28;20156;-76
2022/01/30 01:05:28;;;;;;;6.18;2.65;;;10.30;99.90;;;;;;5115258;28;20487;-76
2022/01/30 01:07:57;;;;;;;5.07;2.88;;;10.30;99.90;;;;;;5113614;28;20024;-76
2022/01/30 01:10:36;;;;;;;7.10;2.85;;;10.30;99.90;;;;;;5114857;28;20100;-74
2022/01/30 01:13:24;;;;;;;7.72;3.28;;;10.30;99.90;;;;;;5115097;28;20469;-74
2022/01/30 01:23:56;;;;;;;5.65;3.10;;;10.20;99.90;;;;;;5114388;28;20038;-76
2022/01/30 01:26:24;;;;;;;6.05;2.78;;;10.20;99.90;;;;;;5114534;28;20015;-75
2022/01/30 01:28:50;;;;;;;5.95;2.95;;;10.20;99.90;;;;;;5114467;27;20058;-76
2022/01/30 01:31:17;;;;;;;6.07;3.05;;;10.30;99.90;;;;;;5114434;28;20027;-75
2022/01/30 01:36:41;;;;;;;6.78;3.45;;;10.30;99.90;;;;;;5090751;28;20493;-75
2022/01/30 01:39:06;;;;;;;6.25;2.95;;;10.20;99.90;;;;;;5114318;28;20031;-74
2022/01/30 01:41:33;;;;;;;6.78;3.20;;;10.20;99.90;;;;;;5114252;28;20476;-75
2022/01/30 01:43:59;;;;;;;5.97;2.92;;;10.20;99.90;;;;;;5114268;28;20046;-76
2022/01/30 01:46:30;;;;;;;6.85;2.50;;;10.20;99.90;;;;;;5114258;28;20037;-75
2022/01/30 01:48:56;;;;;;;6.03;3.13;;;10.20;99.90;;;;;;5114536;28;20032;-74
2022/01/30 01:51:25;;;;;;;7.13;3.22;;;10.20;99.90;;;;;;5114404;28;20423;-75
2022/01/30 01:53:56;;;;;;;7.90;2.92;;;10.10;99.90;;;;;;5114057;28;20023;-74
2022/01/30 01:56:22;;;;;;;8.15;3.35;;;10.10;99.90;;;;;;5114285;28;20020;-74
2022/01/30 01:58:49;;;;;;;8.10;2.72;;;10.10;99.90;;;;;;5114009;28;20449;-75
2022/01/30 02:01:15;;;;;;;4.75;2.40;;;10.00;99.90;;;;;;5113885;28;20025;-74
2022/01/30 02:03:41;;;;;;;6.18;3.13;;;10.00;99.90;;;;;;5113831;28;20051;-75
2022/01/30 02:06:10;;;;;;;5.50;2.60;;;10.00;99.90;;;;;;5113889;28;20064;-74
2022/01/30 02:08:43;;;;;;;4.78;2.83;;;10.10;99.90;;;;;;5114138;28;20078;-74
2022/01/30 02:11:14;;;;;;;7.05;2.80;;;10.00;99.90;;;;;;5112874;28;20056;-75
2022/01/30 02:27:17;;;;;;;8.02;3.80;;;10.00;99.90;;;;;;5113991;28;20105;-75
2022/01/30 02:29:44;;;;;;;6.13;2.97;;;9.90;99.90;;;;;;5113659;28;20024;-76
2022/01/30 02:32:10;;;;;;;7.50;3.35;;;9.90;99.90;;;;;;5113846;28;20035;-76
2022/01/30 02:34:35;;;;;;;6.88;3.00;;;9.90;99.90;;;;;;5115056;28;20099;-74
2022/01/30 02:37:01;;;;;;;4.93;3.03;;;9.90;99.90;;;;;;5117913;28;20145;-74
2022/01/30 02:39:27;;;;;;;6.95;3.72;;;9.90;99.90;;;;;;5117851;28;20252;-74
2022/01/30 02:41:54;;;;;;;6.78;3.20;;;9.90;99.90;;;;;;5117776;28;20156;-74
2022/01/30 02:44:25;;;;;;;7.18;3.20;;;9.90;99.90;;;;;;5118001;28;20088;-76
2022/01/30 02:46:54;;;;;;;5.82;3.00;;;9.90;99.90;;;;;;5118000;28;20020;-74
2022/01/30 02:51:51;;;;;;;6.68;3.13;;;10.00;99.90;;;;;;5118177;28;20149;-75
2022/01/30 02:54:17;;;;;;;4.63;2.92;;;10.00;99.90;;;;;;5115992;28;20439;-76
2022/01/30 02:56:43;;;;;;;5.82;3.22;;;10.00;99.90;;;;;;5117495;28;20469;-75
2022/01/30 02:59:10;;;;;;;5.68;3.10;;;10.00;99.90;;;;;;5117414;28;20027;-74
2022/01/30 03:01:35;;;;;;;6.93;3.20;;;9.90;99.90;;;;;;5117266;28;20022;-75
2022/01/30 03:04:02;;;;;;;6.38;3.40;;;9.90;99.90;;;;;;5116972;28;20024;-74
2022/01/30 03:06:28;;;;;;;6.20;3.30;;;9.90;99.90;;;;;;5117244;28;20405;-74
2022/01/30 03:08:54;;;;;;;5.88;2.90;;;9.90;99.90;;;;;;5117542;28;20024;-74
2022/01/30 03:11:20;;;;;;;5.68;3.17;;;9.90;99.90;;;;;;5117224;28;20027;-75
2022/01/30 03:13:46;;;;;;;6.80;3.00;;;9.90;99.90;;;;;;5117170;28;20553;-75
2022/01/30 03:16:12;;;;;;;4.82;2.95;;;9.90;99.90;;;;;;5117024;28;20020;-76
2022/01/30 03:18:37;;;;;;;6.47;3.30;;;9.90;99.90;;;;;;5117318;28;20050;-75
2022/01/30 03:21:04;;;;;;;5.18;2.75;;;9.90;99.90;;;;;;5117038;28;20389;-74
2022/01/30 03:23:30;;;;;;;5.53;3.05;;;9.90;99.90;;;;;;5115675;28;20024;-75
2022/01/30 03:25:58;;;;;;;9.35;3.15;;;9.90;99.90;;;;;;5116917;28;20024;-75
2022/01/30 03:28:25;;;;;;;6.75;3.53;;;9.90;99.90;;;;;;5116902;28;20389;-74
2022/01/30 03:30:55;;;;;;;5.65;3.47;;;9.80;99.90;;;;;;5116835;28;20544;-76
2022/01/30 03:33:21;;;;;;;5.07;2.88;;;9.80;99.90;;;;;;5115333;28;20024;-75
2022/01/30 03:35:47;;;;;;;7.13;3.28;;;9.80;99.90;;;;;;5116690;28;20028;-76
2022/01/30 03:38:14;;;;;;;5.97;3.00;;;9.90;99.90;;;;;;5116682;28;20087;-74
2022/01/30 03:40:40;;;;;;;6.53;3.72;;;9.90;99.90;;;;;;5116937;28;20030;-75
2022/01/30 03:43:05;;;;;;;6.57;3.30;;;9.90;99.90;;;;;;5116612;28;20028;-75
2022/01/30 03:45:32;;;;;;;7.53;3.65;;;9.80;99.90;;;;;;5116761;28;20031;-74
2022/01/30 03:47:57;;;;;;;5.15;2.70;;;9.90;99.90;;;;;;5116518;28;20030;-73
2022/01/30 03:50:24;;;;;;;5.40;2.75;;;9.90;99.90;;;;;;5117045;28;20110;-75
2022/01/30 03:52:50;;;;;;;4.72;2.70;;;9.90;99.90;;;;;;5116429;28;20024;-74
2022/01/30 03:55:16;;;;;;;5.10;2.75;;;9.90;99.90;;;;;;5116389;28;20076;-74
2022/01/30 03:57:42;;;;;;;4.80;2.85;;;9.90;99.90;;;;;;5116369;28;20022;-74
2022/01/30 04:00:08;;;;;;;7.00;3.05;;;9.90;99.90;;;;;;5116227;28;20027;-75
2022/01/30 04:02:35;;;;;;;7.03;3.30;;;9.90;99.90;;;;;;5116451;28;20157;-75
2022/01/30 04:05:01;;;;;;;5.45;3.33;;;9.80;99.90;;;;;;5116174;28;20089;-75
2022/01/30 04:07:27;;;;;;;5.78;3.10;;;9.90;99.90;;;;;;5116108;28;20489;-74
2022/01/30 04:09:53;;;;;;;3.97;2.60;;;9.90;99.90;;;;;;5116099;28;20153;-75
2022/01/30 04:12:19;;;;;;;4.07;2.70;;;9.90;99.90;;;;;;5115963;28;20061;-75
2022/01/30 04:14:45;;;;;;;5.60;2.97;;;9.90;99.90;;;;;;5116010;28;20101;-74
2022/01/30 04:17:13;;;;;;;5.70;3.03;;;9.90;99.90;;;;;;5115959;28;20024;-75
2022/01/30 04:19:39;;;;;;;4.15;2.70;;;9.90;99.90;;;;;;5114571;28;20020;-75
2022/01/30 04:22:05;;;;;;;7.57;3.00;;;10.00;99.90;;;;;;5116155;28;20031;-76
2022/01/30 04:24:31;;;;;;;5.03;3.00;;;10.00;99.90;;;;;;5115827;28;20423;-75
2022/01/30 04:26:56;;;;;;;5.22;3.42;;;10.00;99.90;;;;;;5115780;28;20016;-74
2022/01/30 04:29:22;;;;;;;4.93;2.90;;;10.00;99.90;;;;;;5115711;28;20063;-75
2022/01/30 04:31:49;;;;;;;4.85;2.67;;;9.90;99.90;;;;;;5115676;28;20041;-75
2022/01/30 04:34:15;;;;;;;6.00;3.13;;;9.90;99.90;;;;;;5115598;28;20020;-75
2022/01/30 04:36:55;;;;;;;5.85;2.80;;;9.90;99.90;;;;;;5115845;28;20049;-75
2022/01/30 04:57:50;;;;;;;4.57;2.78;;;10.00;99.90;;;;;;5114931;28;20469;-76
2022/01/30 05:08:02;;;;;;;4.78;3.03;;;9.90;99.90;;;;;;5114744;28;20408;-75
2022/01/30 05:10:28;;;;;;;5.88;3.40;;;9.90;99.90;;;;;;5113640;28;20112;-74
2022/01/30 05:12:57;;;;;;;8.02;4.28;;;9.80;99.90;;;;;;5114847;28;20051;-75
2022/01/30 05:15:23;;;;;;;7.80;5.00;;;9.80;99.90;;;;;;5113448;28;20019;-75
2022/01/30 05:17:49;;;;;;;7.80;5.40;;;9.70;99.90;;;;;;5115025;28;20020;-74
2022/01/30 05:20:15;;;;;;;8.32;5.43;;;9.70;99.90;;;;;;5115304;28;20023;-75
2022/01/30 05:22:41;;;;;;;9.52;6.22;;;9.80;99.90;;;;;;5114610;28;20027;-75
2022/01/30 05:25:08;;;;;;;9.50;5.38;;;9.70;99.90;;;;;;5115050;28;20027;-75
2022/01/30 05:27:34;;;;;;;7.90;5.10;;;9.70;99.90;;;;;;5115142;28;20034;-75
2022/01/30 05:30:00;;;;;;;9.45;5.50;;;9.70;99.90;;;;;;5114514;28;20020;-76
2022/01/30 05:32:26;;;;;;;9.48;5.40;;;9.70;99.90;;;;;;5114461;27;20554;-75
2022/01/30 05:34:51;;;;;;;7.80;5.50;;;9.70;99.90;;;;;;5114917;28;20028;-75
2022/01/30 05:37:18;;;;;;;7.28;4.90;;;9.70;99.90;;;;;;5114696;28;20044;-75
2022/01/30 05:39:45;;;;;;;7.78;4.88;;;9.70;99.90;;;;;;5114619;28;20026;-75
2022/01/30 05:42:13;;;;;;;7.45;4.72;;;9.70;99.90;;;;;;5114566;28;20126;-75
2022/01/30 05:47:13;;;;;;;6.95;4.90;;;9.80;99.90;;;;;;5114602;28;20035;-76
2022/01/30 05:49:40;;;;;;;8.32;5.65;;;9.70;99.90;;;;;;5114541;28;20366;-74
2022/01/30 05:52:06;;;;;;;8.68;5.85;;;9.70;99.90;;;;;;5114137;28;20085;-74
2022/01/30 05:54:32;;;;;;;7.38;4.78;;;9.80;99.90;;;;;;5114520;28;20429;-75
2022/01/30 05:56:57;;;;;;;7.97;4.88;;;9.80;99.90;;;;;;5114085;28;20053;-75
2022/01/30 05:59:23;;;;;;;7.88;4.82;;;9.80;99.90;;;;;;5114022;28;20015;-75
2022/01/30 06:01:49;;;;;;;7.32;4.97;;;9.80;99.90;;;;;;5114295;28;20046;-74
2022/01/30 06:04:14;;;;;;;7.97;4.72;;;9.80;99.90;;;;;;5113932;28;20071;-75
2022/01/30 06:06:49;;;;;;;9.27;3.90;;;9.70;99.90;;;;;;5114187;28;20027;-76
2022/01/30 06:11:43;;;;;;;13.40;3.60;;;9.60;99.90;;;;;;5113793;28;20042;-74
2022/01/30 06:14:09;;;;;;;16.63;4.05;;;9.60;99.90;;;;;;5113837;28;20074;-74
2022/01/30 06:16:35;;;;;;;17.52;4.20;;;9.50;99.90;;;;;;5114004;28;20524;-75
2022/01/30 06:19:01;;;;;;;14.18;3.40;;;9.30;99.90;;;;;;5113727;28;20023;-74
2022/01/30 06:21:28;;;;;;;19.67;4.95;;;9.30;99.90;;;;;;5113743;28;20020;-75
2022/01/30 06:23:54;;;;;;;23.58;4.53;;;9.30;99.90;;;;;;5113733;28;20031;-76
2022/01/30 06:26:19;;;;;;;23.50;4.25;;;9.10;99.90;;;;;;5113973;28;20023;-76
2022/01/30 06:28:45;;;;;;;21.77;5.15;;;9.10;99.90;;;;;;5113662;28;20031;-76
2022/01/30 06:31:10;;;;;;;18.00;4.07;;;9.20;99.90;;;;;;5114167;28;20023;-75
2022/01/30 06:33:36;;;;;;;17.27;4.45;;;9.30;99.90;;;;;;5113659;28;20084;-74
2022/01/30 06:36:02;;;;;;;21.80;3.72;;;9.40;99.90;;;;;;5114012;28;20069;-76
2022/01/30 06:38:28;;;;;;;30.88;5.47;;;9.50;99.90;;;;;;5114150;28;20030;-74
2022/01/30 06:40:53;;;;;;;23.25;4.38;;;9.60;99.90;;;;;;5113600;28;20016;-75
2022/01/30 06:43:19;;;;;;;13.18;3.20;;;9.60;99.90;;;;;;5113796;28;20016;-74
2022/01/30 06:45:45;;;;;;;16.45;3.78;;;9.60;99.90;;;;;;5113770;28;20020;-75
2022/01/30 06:48:11;;;;;;;16.30;3.70;;;9.70;99.90;;;;;;5113760;28;20034;-74
2022/01/30 06:50:36;;;;;;;17.75;4.13;;;9.80;99.90;;;;;;5113962;28;20028;-75
2022/01/30 06:53:02;;;;;;;15.15;3.75;;;9.80;99.90;;;;;;5112132;28;20042;-74
2022/01/30 06:55:28;;;;;;;17.10;4.03;;;9.90;99.90;;;;;;5113297;28;20031;-75
2022/01/30 06:57:53;;;;;;;13.25;3.83;;;9.90;99.90;;;;;;5113348;28;20501;-74
2022/01/30 07:00:19;;;;;;;27.27;5.20;;;10.00;99.90;;;;;;5113332;28;20020;-76
2022/01/30 07:02:45;;;;;;;14.63;4.65;;;10.00;99.90;;;;;;5113308;28;20036;-75
2022/01/30 07:05:10;;;;;;;17.75;4.72;;;10.00;99.90;;;;;;5113296;28;20520;-76
2022/01/30 07:07:36;;;;;;;17.77;3.80;;;10.00;99.90;;;;;;5113564;28;20031;-76
2022/01/30 07:10:07;;;;;;;20.58;4.90;;;10.00;99.90;;;;;;5113311;28;20012;-75
2022/01/30 07:12:32;;;;;;;22.55;5.68;;;10.00;99.90;;;;;;5113634;28;20028;-74
2022/01/30 07:14:58;;;;;;;23.75;6.20;;;10.00;99.90;;;;;;5113165;28;20036;-74
2022/01/30 07:17:24;;;;;;;20.15;6.55;;;10.00;99.90;;;;;;5113201;28;20028;-74
2022/01/30 07:19:49;;;;;;;16.15;5.90;;;10.00;99.90;;;;;;5113295;28;20024;-76
2022/01/30 07:22:15;;;;;;;21.23;6.25;;;10.00;99.90;;;;;;5116776;28;20023;-75
2022/01/30 07:24:41;;;;;;;19.30;5.93;;;10.00;99.90;;;;;;5116986;28;20582;-75
2022/01/30 07:27:06;;;;;;;16.00;5.35;;;10.00;99.90;;;;;;5116966;28;20106;-74
2022/01/30 07:29:32;;;;;;;16.85;4.63;;;9.90;99.90;;;;;;5116911;28;20104;-75
2022/01/30 07:31:57;;;;;;;16.23;5.60;;;9.90;99.90;;;;;;5116868;28;20031;-75
2022/01/30 07:34:23;;;;;;;28.92;11.45;;;9.80;99.90;;;;;;5116723;28;20381;-74
2022/01/30 07:36:49;;;;;;;25.50;11.98;;;9.80;99.90;;;;;;5117072;28;20024;-74
2022/01/30 07:39:16;;;;;;;20.38;6.28;;;9.80;99.90;;;;;;5117018;28;20524;-74
2022/01/30 07:41:43;;;;;;;24.40;11.32;;;9.70;99.90;;;;;;5116719;28;20016;-76
2022/01/30 07:44:09;;;;;;;17.83;6.68;;;9.70;99.90;;;;;;5116587;28;20020;-75
2022/01/30 07:46:35;;;;;;;22.38;7.55;;;9.80;99.90;;;;;;5116889;28;20028;-75
2022/01/30 07:49:00;;;;;;;26.52;8.30;;;9.80;99.90;;;;;;5116491;28;20023;-76
2022/01/30 07:51:26;;;;;;;21.00;7.57;;;9.90;99.90;;;;;;5116739;28;20024;-75
2022/01/30 07:53:52;;;;;;;22.42;7.63;;;9.90;99.90;;;;;;5116397;28;20185;-75
2022/01/30 07:56:18;;;;;;;18.15;7.70;;;10.00;99.90;;;;;;5116333;28;20042;-76
2022/01/30 07:58:43;;;;;;;16.58;8.32;;;10.00;99.90;;;;;;5116369;27;20047;-75
2022/01/30 08:01:09;;;;;;;16.70;5.50;;;10.00;99.90;;;;;;5116263;27;20031;-75
2022/01/30 08:03:35;;;;;;;17.92;4.30;;;10.10;99.90;;;;;;5116037;28;20044;-74
2022/01/30 08:06:01;;;;;;;18.63;5.03;;;10.10;99.90;;;;;;5116466;28;20069;-75
2022/01/30 08:08:26;;;;;;;12.30;5.32;;;10.10;99.90;;;;;;5116134;28;20023;-76
2022/01/30 08:10:52;;;;;;;21.42;5.28;;;10.10;99.90;;;;;;5116359;28;20073;-74
2022/01/30 08:13:18;;;;;;;21.60;6.22;;;10.10;99.90;;;;;;5116021;28;20027;-75
2022/01/30 08:15:45;;;;;;;15.65;4.72;;;10.10;99.90;;;;;;5115931;28;20019;-74
2022/01/30 08:18:11;;;;;;;16.92;4.90;;;10.10;99.90;;;;;;5115998;28;20477;-75
2022/01/30 08:20:36;;;;;;;18.40;4.53;;;10.10;99.90;;;;;;5116168;28;20030;-75
2022/01/30 08:23:10;;;;;;;19.00;5.00;;;10.20;99.90;;;;;;5115880;28;20438;-76
2022/01/30 08:25:36;;;;;;;24.58;5.78;;;10.20;99.90;;;;;;5115906;28;20023;-76
2022/01/30 08:28:02;;;;;;;26.10;5.63;;;10.20;99.90;;;;;;5115804;27;20439;-75
2022/01/30 08:30:28;;;;;;;23.58;5.35;;;10.20;99.90;;;;;;5115718;28;20091;-74
2022/01/30 08:32:54;;;;;;;25.52;12.82;;;10.30;99.90;;;;;;5114719;28;20024;-74
2022/01/30 08:35:20;;;;;;;30.88;11.88;;;10.30;99.90;;;;;;5115800;28;20024;-75
2022/01/30 08:37:47;;;;;;;27.33;7.75;;;10.40;99.90;;;;;;5115623;28;20012;-74
2022/01/30 08:40:16;;;;;;;15.57;5.15;;;10.40;99.90;;;;;;5115570;28;20016;-76
2022/01/30 08:42:43;;;;;;;20.75;5.18;;;10.40;99.90;;;;;;5115483;28;20016;-75
2022/01/30 08:45:09;;;;;;;21.85;5.90;;;10.40;99.90;;;;;;5116001;28;20080;-74
2022/01/30 08:47:36;;;;;;;21.30;5.65;;;10.40;99.90;;;;;;5115984;28;20019;-75
2022/01/30 08:50:03;;;;;;;22.38;7.50;;;10.40;99.90;;;;;;5115640;28;20062;-75
2022/01/30 08:52:28;;;;;;;23.80;6.03;;;10.50;99.90;;;;;;5115319;28;20042;-74
2022/01/30 08:54:54;;;;;;;21.08;5.32;;;10.50;99.90;;;;;;5115088;28;20023;-75
2022/01/30 08:57:20;;;;;;;20.58;4.60;;;10.60;99.90;;;;;;5115452;28;20478;-76
2022/01/30 08:59:46;;;;;;;20.90;5.00;;;10.60;99.90;;;;;;5115408;28;20474;-76
2022/01/30 09:02:12;;;;;;;15.68;3.95;;;10.60;99.90;;;;;;5115149;28;20117;-74
2022/01/30 09:04:38;;;;;;;17.27;4.38;;;10.70;99.90;;;;;;5115073;28;20035;-75
2022/01/30 09:07:04;;;;;;;17.45;4.53;;;10.60;99.90;;;;;;5115581;28;20030;-75
2022/01/30 09:09:32;;;;;;;19.63;4.95;;;10.70;99.90;;;;;;5115233;28;20102;-75
2022/01/30 09:11:58;;;;;;;16.15;4.60;;;10.70;99.90;;;;;;5115212;28;20030;-75
2022/01/30 09:14:26;;;;;;;20.02;4.82;;;10.70;99.90;;;;;;5114801;27;20058;-76
2022/01/30 09:16:51;;;;;;;17.58;5.57;;;10.70;99.90;;;;;;5114825;28;20495;-74
2022/01/30 09:19:17;;;;;;;14.75;4.32;;;10.80;99.90;;;;;;5114748;28;20028;-74
2022/01/30 09:21:42;;;;;;;17.58;5.28;;;10.90;99.90;;;;;;5114719;28;20016;-75
2022/01/30 09:24:08;;;;;;;23.65;6.57;;;10.80;99.90;;;;;;5114659;28;20032;-75
2022/01/30 09:26:34;;;;;;;18.60;5.72;;;10.80;99.90;;;;;;5114609;28;20024;-74
2022/01/30 09:28:59;;;;;;;31.25;12.73;;;10.70;99.90;;;;;;5114289;27;20027;-74
2022/01/30 09:31:25;;;;;;;23.52;6.32;;;10.50;99.90;;;;;;5114805;28;20072;-75
2022/01/30 09:33:52;;;;;;;20.73;5.05;;;10.40;99.90;;;;;;5114496;28;20039;-75
2022/01/30 09:36:18;;;;;;;17.20;4.43;;;10.60;99.90;;;;;;5114367;28;20031;-74
2022/01/30 09:38:43;;;;;;;16.63;5.65;;;10.70;99.90;;;;;;5114381;28;20016;-76
2022/01/30 09:41:10;;;;;;;22.13;5.55;;;11.00;99.90;;;;;;5114683;28;20051;-75
2022/01/30 09:43:36;;;;;;;18.08;5.35;;;11.40;99.90;;;;;;5114201;28;20533;-75
2022/01/30 09:46:03;;;;;;;16.00;4.97;;;11.80;99.90;;;;;;5114325;28;20099;-75
2022/01/30 09:48:34;;;;;;;18.60;5.10;;;12.10;99.90;;;;;;5114761;28;20031;-75
2022/01/30 09:51:03;;;;;;;19.67;5.60;;;12.30;99.90;;;;;;5114436;28;20055;-75
2022/01/30 09:53:28;;;;;;;17.90;5.20;;;12.30;99.90;;;;;;5114320;28;20110;-76
2022/01/30 09:55:54;;;;;;;16.13;4.38;;;12.60;99.90;;;;;;5112756;28;20119;-76
2022/01/30 09:58:20;;;;;;;17.77;5.10;;;12.80;99.90;;;;;;5114342;28;20423;-75
2022/01/30 10:00:46;;;;;;;14.63;4.63;;;12.80;99.90;;;;;;5114034;28;20019;-76
2022/01/30 10:03:11;;;;;;;18.05;4.32;;;12.80;99.90;;;;;;5113744;28;20055;-75
2022/01/30 10:05:38;;;;;;;14.07;3.90;;;12.80;99.90;;;;;;5112653;28;20032;-76
2022/01/30 10:08:05;;;;;;;17.23;4.10;;;12.60;99.90;;;;;;5112649;28;20466;-76
2022/01/30 10:10:31;;;;;;;16.88;4.28;;;12.30;99.90;;;;;;5114480;28;20020;-75
2022/01/30 10:13:14;;;;;;;14.63;3.55;;;12.10;99.90;;;;;;5113870;28;20496;-75
2022/01/30 10:15:56;;;;;;;13.98;3.95;;;12.20;99.90;;;;;;5114375;28;20485;-75
2022/01/30 10:18:22;;;;;;;16.70;3.88;;;12.00;99.90;;;;;;5114120;28;20047;-74
2022/01/30 10:20:49;;;;;;;11.30;3.63;;;12.00;99.90;;;;;;5113726;28;20016;-75
2022/01/30 10:23:15;;;;;;;15.60;3.70;;;12.00;99.90;;;;;;5113594;28;20021;-76
2022/01/30 10:25:47;;;;;;;17.00;3.95;;;11.60;99.90;;;;;;5114222;28;20023;-76
2022/01/30 10:28:19;;;;;;;14.23;3.58;;;11.40;99.90;;;;;;5113659;28;20031;-76
2022/01/30 10:30:51;;;;;;;18.90;4.70;;;11.40;99.90;;;;;;5113685;28;20497;-74
2022/01/30 10:33:19;;;;;;;15.48;5.43;;;11.20;99.90;;;;;;5113901;28;20031;-74
2022/01/30 10:35:52;;;;;;;18.60;3.90;;;11.20;99.90;;;;;;5113544;28;20024;-75
2022/01/30 10:38:35;;;;;;;17.83;3.97;;;11.20;99.90;;;;;;5114223;28;20028;-74
2022/01/30 10:41:18;;;;;;;17.73;3.58;;;10.90;99.90;;;;;;5113861;28;20587;-74
2022/01/30 10:43:54;;;;;;;16.00;3.88;;;11.10;99.90;;;;;;5113855;28;20071;-74
2022/01/30 10:46:41;;;;;;;13.48;3.30;;;11.40;99.90;;;;;;5113820;28;20047;-75
2022/01/30 10:49:11;;;;;;;14.40;3.05;;;11.50;99.90;;;;;;5113556;28;20046;-75
2022/01/30 10:51:37;;;;;;;13.80;3.13;;;11.50;99.90;;;;;;5113461;28;20024;-76
2022/01/30 10:54:12;;;;;;;17.52;3.28;;;11.40;99.90;;;;;;5113722;28;20059;-75
2022/01/30 10:56:38;;;;;;;13.70;4.20;;;11.40;99.90;;;;;;5115271;28;20027;-75
2022/01/30 10:59:22;;;;;;;14.13;3.38;;;11.30;99.90;;;;;;5117529;28;20026;-74
2022/01/30 11:01:52;;;;;;;12.82;3.58;;;11.30;99.90;;;;;;5118087;28;20027;-74
2022/01/30 11:04:26;;;;;;;17.20;3.70;;;11.40;99.90;;;;;;5117663;28;20047;-75
2022/01/30 11:06:54;;;;;;;14.23;3.58;;;11.40;99.90;;;;;;5117377;28;20490;-74
2022/01/30 11:09:28;;;;;;;21.77;4.18;;;11.40;99.90;;;;;;5117310;28;20392;-75
2022/01/30 11:12:01;;;;;;;12.57;3.40;;;11.30;99.90;;;;;;5117350;28;20027;-75
2022/01/30 11:14:38;;;;;;;12.35;3.58;;;11.30;99.90;;;;;;5117210;28;20020;-74
2022/01/30 11:17:08;;;;;;;13.27;3.40;;;11.30;99.90;;;;;;5117809;27;20099;-74
2022/01/30 11:19:39;;;;;;;19.55;4.28;;;11.40;99.90;;;;;;5117465;28;20112;-74
2022/01/30 11:22:10;;;;;;;15.15;3.80;;;11.40;99.90;;;;;;5115537;28;20019;-75
2022/01/30 11:24:48;;;;;;;19.48;4.22;;;11.40;99.90;;;;;;5115756;28;20103;-75
2022/01/30 11:27:22;;;;;;;13.50;3.53;;;11.40;99.90;;;;;;5117290;28;20020;-74
2022/01/30 11:29:48;;;;;;;13.90;3.60;;;11.20;99.90;;;;;;5116978;28;20389;-75
2022/01/30 11:32:16;;;;;;;17.77;4.25;;;11.30;99.90;;;;;;5116908;28;20016;-75
2022/01/30 11:34:43;;;;;;;17.13;4.22;;;11.50;99.90;;;;;;5116742;28;20574;-74
2022/01/30 11:37:12;;;;;;;16.38;4.10;;;11.60;99.90;;;;;;5116748;28;20020;-76
2022/01/30 11:39:49;;;;;;;19.02;4.30;;;11.40;99.90;;;;;;5116995;28;20023;-74
2022/01/30 11:42:15;;;;;;;13.80;3.05;;;11.50;99.90;;;;;;5115193;28;20024;-75
2022/01/30 11:44:43;;;;;;;19.85;4.63;;;11.50;99.90;;;;;;5116885;28;20488;-75
2022/01/30 11:47:09;;;;;;;15.20;3.63;;;11.60;99.90;;;;;;5116881;28;20369;-74
2022/01/30 11:50:00;;;;;;;14.52;3.92;;;11.50;99.90;;;;;;5116511;28;20024;-75
2022/01/30 11:52:50;;;;;;;17.00;3.85;;;11.60;99.90;;;;;;5105330;28;20031;-76
2022/01/30 11:56:05;;;;;;;18.00;4.00;;;11.70;99.90;;;;;;5116319;28;20059;-76
2022/01/30 11:58:32;;;;;;;10.77;3.55;;;11.60;99.90;;;;;;5110615;28;20027;-74
2022/01/30 12:01:11;;;;;;;14.32;3.33;;;11.50;99.90;;;;;;5116328;28;20430;-75
2022/01/30 12:03:36;;;;;;;17.77;3.25;;;11.40;99.90;;;;;;5116099;28;20118;-74
2022/01/30 12:06:20;;;;;;;17.08;3.50;;;11.50;99.90;;;;;;5116410;28;20055;-75
2022/01/30 12:08:53;;;;;;;12.95;3.05;;;11.50;99.90;;;;;;5116153;28;20099;-75
2022/01/30 12:11:37;;;;;;;10.23;3.95;;;11.30;99.90;;;;;;5116175;28;20024;-76
2022/01/30 12:14:20;;;;;;;13.85;3.22;;;11.20;99.90;;;;;;5116073;28;20034;-76
2022/01/30 12:16:55;;;;;;;14.27;3.28;;;11.20;99.90;;;;;;5116157;28;20035;-75
2022/01/30 12:19:30;;;;;;;13.52;3.20;;;11.30;99.90;;;;;;5116291;28;20030;-76
2022/01/30 12:22:15;;;;;;;17.27;4.60;;;11.40;99.90;;;;;;5115916;28;20027;-75
2022/01/30 12:24:41;;;;;;;19.27;4.00;;;11.50;99.90;;;;;;5116398;28;20024;-75
2022/01/30 12:27:07;;;;;;;21.48;5.00;;;11.70;99.90;;;;;;5116119;28;20463;-75
2022/01/30 12:29:38;;;;;;;15.40;3.63;;;11.90;99.90;;;;;;5115433;28;20039;-76
2022/01/30 12:34:56;;;;;;;19.83;3.72;;;11.80;99.90;;;;;;5116130;28;20039;-73
2022/01/30 12:37:33;;;;;;;15.23;4.00;;;11.60;99.90;;;;;;5115833;28;20088;-74
2022/01/30 12:40:13;;;;;;;17.80;4.93;;;11.60;99.90;;;;;;5115900;28;20031;-74
2022/01/30 12:42:39;;;;;;;16.20;4.20;;;11.60;99.90;;;;;;5115815;27;20027;-75
2022/01/30 12:45:09;;;;;;;19.23;4.50;;;11.60;99.90;;;;;;5115827;28;20397;-76
2022/01/30 12:47:49;;;;;;;15.83;3.97;;;11.60;99.90;;;;;;5115744;28;20053;-75
2022/01/30 12:50:16;;;;;;;15.38;3.53;;;11.80;99.90;;;;;;5115386;28;20019;-75
2022/01/30 12:52:47;;;;;;;18.35;4.05;;;11.90;99.90;;;;;;5115364;27;20081;-74
2022/01/30 12:55:16;;;;;;;17.35;3.88;;;11.90;99.90;;;;;;5115283;28;20047;-75
2022/01/30 12:57:42;;;;;;;13.15;3.55;;;11.90;99.90;;;;;;5115494;28;20023;-75
2022/01/30 13:00:11;;;;;;;14.27;4.10;;;12.00;99.90;;;;;;5115210;28;20024;-75
2022/01/30 13:02:37;;;;;;;15.98;4.05;;;12.10;99.90;;;;;;5115082;28;20050;-75
2022/01/30 13:05:04;;;;;;;20.50;4.50;;;12.00;99.90;;;;;;5115359;28;20024;-74
2022/01/30 13:07:29;;;;;;;15.95;3.63;;;12.00;99.90;;;;;;5115299;28;20477;-75
2022/01/30 13:10:10;;;;;;;17.38;3.65;;;12.00;99.90;;;;;;5114925;28;20030;-75
2022/01/30 13:12:36;;;;;;;13.73;3.13;;;12.00;99.90;;;;;;5115278;28;20023;-75
2022/01/30 13:15:15;;;;;;;20.73;3.97;;;12.00;99.90;;;;;;5114812;28;20485;-76
2022/01/30 13:17:41;;;;;;;15.75;3.75;;;12.10;99.90;;;;;;5114821;28;20024;-74
2022/01/30 13:20:09;;;;;;;15.85;3.80;;;12.00;99.90;;;;;;5114773;28;20020;-75
2022/01/30 13:22:37;;;;;;;16.55;4.20;;;12.00;99.90;;;;;;5114751;28;20018;-76
2022/01/30 13:25:07;;;;;;;15.32;3.85;;;12.00;99.90;;;;;;5115250;28;20024;-74
2022/01/30 13:27:35;;;;;;;14.25;3.20;;;11.90;99.90;;;;;;5114653;28;20038;-76
2022/01/30 13:30:01;;;;;;;16.80;4.53;;;11.90;99.90;;;;;;5113308;28;20463;-75
2022/01/30 13:32:27;;;;;;;14.27;4.20;;;11.90;99.90;;;;;;5114566;28;20103;-75
2022/01/30 13:34:53;;;;;;;16.50;4.32;;;11.80;99.90;;;;;;5114388;28;20481;-75
2022/01/30 13:37:21;;;;;;;16.75;3.85;;;11.80;99.90;;;;;;5114377;28;20027;-75
2022/01/30 13:48:15;;;;;;;15.45;3.75;;;11.60;99.90;;;;;;5069332;28;20032;-75
2022/01/30 13:50:52;;;;;;;15.18;3.20;;;11.60;99.90;;;;;;5114162;28;20488;-75
2022/01/30 13:53:17;;;;;;;15.45;3.10;;;11.60;99.90;;;;;;5114783;28;20560;-76
2022/01/30 13:56:07;;;;;;;16.08;4.15;;;11.80;99.90;;;;;;5112702;28;20118;-74
2022/01/30 13:58:43;;;;;;;12.52;3.30;;;11.80;99.90;;;;;;5114438;28;20024;-75
2022/01/30 14:01:12;;;;;;;12.52;3.30;;;11.90;99.90;;;;;;5114428;28;20431;-76
2022/01/30 14:03:41;;;;;;;15.55;3.80;;;11.90;99.90;;;;;;5113813;28;20048;-75